createdAt,value
2018-03-27T00:02:26.987Z,19.23
2018-03-27T00:04:54.615Z,19.77
2018-03-27T00:07:22.179Z,19.20
2018-03-27T00:09:49.721Z,21.67
2018-03-27T00:12:17.363Z,17.35
2018-03-27T00:14:44.899Z,17.93
2018-03-27T00:17:12.465Z,18.23
2018-03-27T00:19:40.005Z,19.03
2018-03-27T00:22:07.567Z,17.58
2018-03-27T00:24:41.833Z,18.80
2018-03-27T00:27:09.118Z,21.40
2018-03-27T00:29:48.319Z,17.70
2018-03-27T00:32:27.717Z,17.40
2018-03-27T00:35:06.953Z,18.97
2018-03-27T00:37:46.301Z,17.23
2018-03-27T00:40:25.592Z,17.87
2018-03-27T00:42:54.137Z,18.00
2018-03-27T00:45:21.716Z,19.65
2018-03-27T00:47:49.337Z,17.77
2018-03-27T00:50:16.896Z,21.13
2018-03-27T00:52:44.416Z,21.10
2018-03-27T00:55:11.993Z,21.80
2018-03-27T00:57:39.515Z,19.13
2018-03-27T01:00:07.077Z,18.33
2018-03-27T01:02:34.603Z,19.03
2018-03-27T01:05:07.808Z,16.83
2018-03-27T01:07:35.327Z,14.95
2018-03-27T01:10:02.884Z,21.37
2018-03-27T01:12:30.421Z,17.87
2018-03-27T01:14:58.118Z,18.40
2018-03-27T01:17:25.653Z,17.43
2018-03-27T01:19:53.225Z,16.50
2018-03-27T01:22:20.766Z,16.50
2018-03-27T01:24:48.332Z,18.70
2018-03-27T01:27:15.848Z,14.10
2018-03-27T01:29:43.427Z,15.48
2018-03-27T01:32:11.503Z,15.32
2018-03-27T01:34:39.082Z,15.87
2018-03-27T01:37:06.612Z,14.27
2018-03-27T01:39:34.223Z,15.97
2018-03-27T01:42:01.743Z,19.17
2018-03-27T01:44:29.298Z,20.07
2018-03-27T01:46:56.819Z,18.27
2018-03-27T01:49:24.364Z,22.92
2018-03-27T01:51:51.904Z,18.10
2018-03-27T01:54:19.470Z,19.83
2018-03-27T01:56:46.984Z,13.57
2018-03-27T01:59:14.595Z,14.43
2018-03-27T02:01:42.152Z,15.33
2018-03-27T02:04:09.709Z,12.63
2018-03-27T02:06:37.228Z,14.77
2018-03-27T02:09:04.806Z,13.80
2018-03-27T02:11:37.852Z,16.90
2018-03-27T02:14:10.896Z,16.63
2018-03-27T02:16:44.032Z,21.20
2018-03-27T02:19:17.428Z,17.40
2018-03-27T02:21:44.395Z,14.47
2018-03-27T02:24:12.368Z,16.37
2018-03-27T02:26:39.879Z,15.40
2018-03-27T02:29:07.452Z,13.90
2018-03-27T02:31:34.987Z,10.50
2018-03-27T02:34:02.585Z,9.98
2018-03-27T02:36:30.103Z,9.47
2018-03-27T02:38:57.639Z,12.80
2018-03-27T02:41:25.195Z,10.33
2018-03-27T02:43:52.737Z,12.07
2018-03-27T02:46:20.301Z,14.30
2018-03-27T02:48:47.903Z,10.73
2018-03-27T02:51:15.557Z,12.60
2018-03-27T02:53:43.072Z,16.83
2018-03-27T02:56:10.625Z,13.40
2018-03-27T02:58:38.156Z,15.07
2018-03-27T03:01:05.730Z,15.17
2018-03-27T03:03:33.280Z,13.73
2018-03-27T03:06:00.847Z,13.00
2018-03-27T03:08:28.405Z,13.70
2018-03-27T03:10:56.068Z,11.87
2018-03-27T03:13:23.672Z,13.45
2018-03-27T03:15:51.298Z,12.57
2018-03-27T03:18:18.824Z,13.93
2018-03-27T03:20:46.376Z,14.13
2018-03-27T03:23:13.925Z,13.17
2018-03-27T03:25:41.983Z,15.48
2018-03-27T03:28:09.512Z,16.23
2018-03-27T03:30:37.122Z,15.50
2018-03-27T03:33:04.649Z,16.23
2018-03-27T03:35:32.220Z,17.60
2018-03-27T03:37:59.751Z,16.58
2018-03-27T03:40:27.317Z,18.67
2018-03-27T03:42:54.838Z,13.23
2018-03-27T03:45:22.438Z,22.03
2018-03-27T03:47:49.956Z,14.90
2018-03-27T03:50:17.603Z,15.47
2018-03-27T03:52:45.134Z,17.23
2018-03-27T03:55:12.727Z,16.73
2018-03-27T03:57:40.269Z,16.47
2018-03-27T04:00:07.820Z,14.07
2018-03-27T04:02:35.337Z,14.00
2018-03-27T04:05:02.868Z,17.60
2018-03-27T04:07:30.427Z,16.70
2018-03-27T04:09:57.978Z,15.77
2018-03-27T04:12:25.537Z,17.05
2018-03-27T04:14:53.073Z,14.23
2018-03-27T04:17:20.631Z,12.98
2018-03-27T04:19:48.148Z,16.73
2018-03-27T04:22:16.082Z,15.35
2018-03-27T04:24:43.660Z,16.40
2018-03-27T04:27:11.234Z,14.67
2018-03-27T04:29:38.764Z,17.60
2018-03-27T04:32:06.327Z,15.00
2018-03-27T04:34:33.874Z,17.30
2018-03-27T04:37:01.433Z,16.12
2018-03-27T04:39:28.974Z,16.37
2018-03-27T04:41:56.557Z,16.53
2018-03-27T04:44:24.082Z,16.33
2018-03-27T04:46:51.642Z,15.73
2018-03-27T04:49:19.604Z,19.87
2018-03-27T04:51:47.164Z,16.47
2018-03-27T04:54:14.691Z,18.57
2018-03-27T04:56:42.269Z,18.13
2018-03-27T04:59:09.869Z,17.20
2018-03-27T05:01:37.431Z,17.73
2018-03-27T05:04:05.020Z,15.23
2018-03-27T05:06:32.605Z,16.07
2018-03-27T05:09:00.129Z,20.67
2018-03-27T05:11:27.706Z,17.50
2018-03-27T05:13:55.231Z,20.40
2018-03-27T05:16:22.812Z,16.50
2018-03-27T05:18:50.341Z,21.50
2018-03-27T05:23:51.592Z,23.67
2018-03-27T05:26:19.694Z,20.30
2018-03-27T05:28:47.214Z,25.80
2018-03-27T05:31:14.772Z,19.63
2018-03-27T05:33:42.302Z,19.57
2018-03-27T05:36:09.893Z,23.55
2018-03-27T05:38:37.445Z,24.13
2018-03-27T05:41:05.016Z,18.93
2018-03-27T05:43:32.562Z,18.63
2018-03-27T05:46:00.084Z,16.53
2018-03-27T05:48:27.638Z,20.43
2018-03-27T05:50:55.170Z,17.97
2018-03-27T05:53:22.784Z,18.97
2018-03-27T05:55:51.279Z,19.63
2018-03-27T05:58:19.538Z,20.93
2018-03-27T06:00:47.164Z,22.47
2018-03-27T06:03:14.727Z,21.60
2018-03-27T06:05:42.245Z,24.60
2018-03-27T06:08:09.807Z,18.95
2018-03-27T06:10:37.335Z,21.87
2018-03-27T06:13:05.211Z,19.80
2018-03-27T06:15:32.743Z,27.43
2018-03-27T06:18:00.296Z,33.90
2018-03-27T06:20:27.831Z,25.90
2018-03-27T06:22:56.150Z,22.57
2018-03-27T06:25:23.701Z,21.27
2018-03-27T06:27:51.269Z,23.67
2018-03-27T06:30:18.924Z,19.77
2018-03-27T06:32:46.479Z,24.73
2018-03-27T06:35:14.256Z,33.97
2018-03-27T06:37:41.930Z,31.93
2018-03-27T06:40:09.463Z,27.60
2018-03-27T06:42:37.088Z,26.00
2018-03-27T06:45:04.819Z,24.37
2018-03-27T06:47:33.789Z,25.57
2018-03-27T06:50:01.522Z,26.63
2018-03-27T06:52:29.091Z,28.57
2018-03-27T06:54:57.339Z,27.23
2018-03-27T06:57:24.902Z,22.33
2018-03-27T06:59:52.634Z,28.00
2018-03-27T07:02:20.388Z,24.60
2018-03-27T07:04:48.184Z,23.03
2018-03-27T07:07:15.813Z,25.27
2018-03-27T07:09:43.761Z,24.43
2018-03-27T07:12:11.442Z,23.83
2018-03-27T07:14:38.970Z,21.30
2018-03-27T07:17:06.520Z,19.60
2018-03-27T07:19:34.181Z,19.23
2018-03-27T07:22:01.699Z,20.43
2018-03-27T07:24:29.395Z,23.10
2018-03-27T07:26:58.055Z,24.87
2018-03-27T07:29:25.826Z,20.27
2018-03-27T07:31:53.895Z,23.90
2018-03-27T07:34:21.482Z,20.87
2018-03-27T07:36:50.040Z,21.80
2018-03-27T07:39:17.770Z,19.17
2018-03-27T07:41:45.316Z,22.33
2018-03-27T07:44:13.843Z,27.10
2018-03-27T07:46:41.678Z,27.40
2018-03-27T07:49:09.243Z,25.73
2018-03-27T07:51:36.828Z,23.90
2018-03-27T07:54:04.398Z,29.43
2018-03-27T07:56:31.920Z,28.03
2018-03-27T07:58:59.551Z,25.37
2018-03-27T08:01:27.088Z,26.00
2018-03-27T08:03:55.110Z,27.20
2018-03-27T08:06:22.668Z,27.77
2018-03-27T08:08:50.253Z,27.50
2018-03-27T08:11:17.932Z,27.93
2018-03-27T08:13:45.567Z,34.60
2018-03-27T08:16:13.091Z,33.17
2018-03-27T08:18:40.713Z,31.05
2018-03-27T08:21:08.230Z,35.30
2018-03-27T08:23:41.952Z,34.25
2018-03-27T08:26:12.093Z,31.30
2018-03-27T08:28:40.556Z,34.53
2018-03-27T08:31:09.513Z,37.20
2018-03-27T08:33:40.591Z,39.17
2018-03-27T08:36:10.145Z,37.80
2018-03-27T08:38:40.931Z,43.47
2018-03-27T08:41:11.901Z,42.70
2018-03-27T08:43:42.811Z,38.60
2018-03-27T08:46:11.578Z,43.13
2018-03-27T08:48:41.857Z,37.00
2018-03-27T08:51:11.517Z,39.17
2018-03-27T08:53:40.734Z,39.05
2018-03-27T08:56:11.823Z,44.55
2018-03-27T08:58:41.289Z,41.40
2018-03-27T09:01:12.241Z,39.53
2018-03-27T09:03:42.376Z,43.80
2018-03-27T09:06:12.340Z,47.20
2018-03-27T09:08:41.619Z,53.78
2018-03-27T09:11:12.171Z,50.80
2018-03-27T09:13:44.149Z,59.03
2018-03-27T09:16:13.379Z,60.37
2018-03-27T09:18:42.412Z,59.17
2018-03-27T09:21:10.916Z,61.07
2018-03-27T09:23:41.100Z,62.30
2018-03-27T09:26:10.171Z,63.53
2018-03-27T09:28:40.114Z,63.33
2018-03-27T09:31:07.980Z,58.43
2018-03-27T09:33:38.182Z,60.37
2018-03-27T09:36:09.323Z,62.60
2018-03-27T09:38:39.108Z,62.57
2018-03-27T09:41:08.130Z,60.57
2018-03-27T09:43:36.028Z,65.07
2018-03-27T09:46:04.653Z,63.43
2018-03-27T09:48:35.365Z,61.00
2018-03-27T09:51:04.889Z,58.93
2018-03-27T09:53:35.201Z,57.92
2018-03-27T09:56:02.979Z,57.83
2018-03-27T09:58:38.646Z,57.88
2018-03-27T10:01:11.349Z,57.83
2018-03-27T10:03:39.650Z,54.50
2018-03-27T10:06:13.008Z,53.43
2018-03-27T10:08:44.403Z,57.13
2018-03-27T10:11:12.257Z,57.63
2018-03-27T10:13:44.946Z,53.87
2018-03-27T10:16:17.139Z,56.07
2018-03-27T10:18:44.837Z,53.10
2018-03-27T10:21:15.731Z,53.83
2018-03-27T10:23:45.470Z,55.70
2018-03-27T10:26:13.098Z,53.40
2018-03-27T10:28:42.066Z,47.07
2018-03-27T10:31:11.450Z,51.00
2018-03-27T10:33:39.347Z,48.30
2018-03-27T10:36:07.185Z,46.70
2018-03-27T10:38:36.816Z,43.47
2018-03-27T10:41:04.394Z,47.13
2018-03-27T10:43:31.935Z,53.97
2018-03-27T10:45:59.739Z,38.47
2018-03-27T10:48:27.861Z,39.57
2018-03-27T10:50:56.943Z,43.30
2018-03-27T10:53:26.206Z,43.40
2018-03-27T10:55:53.943Z,53.27
2018-03-27T10:58:21.477Z,41.03
2018-03-27T11:00:49.054Z,37.43
2018-03-27T11:03:16.702Z,40.27
2018-03-27T11:05:44.551Z,44.87
2018-03-27T11:08:12.131Z,40.77
2018-03-27T11:10:39.939Z,48.87
2018-03-27T11:13:10.524Z,48.58
2018-03-27T11:15:38.726Z,49.67
2018-03-27T11:18:07.350Z,59.42
2018-03-27T11:20:35.168Z,56.97
2018-03-27T11:23:02.812Z,42.17
2018-03-27T11:25:30.424Z,45.90
2018-03-27T11:28:00.274Z,50.60
2018-03-27T11:30:28.730Z,42.83
2018-03-27T11:32:56.413Z,49.60
2018-03-27T11:35:24.013Z,49.00
2018-03-27T11:37:53.856Z,36.60
2018-03-27T11:40:21.665Z,44.63
2018-03-27T11:42:50.443Z,45.97
2018-03-27T11:45:18.359Z,40.00
2018-03-27T11:47:47.782Z,45.87
2018-03-27T11:50:20.146Z,36.88
2018-03-27T11:52:47.849Z,34.57
2018-03-27T11:55:15.564Z,42.30
2018-03-27T11:57:43.912Z,55.22
2018-03-27T12:00:11.475Z,52.23
2018-03-27T12:02:39.129Z,43.83
2018-03-27T12:05:06.968Z,35.03
2018-03-27T12:07:34.942Z,39.70
2018-03-27T12:10:02.558Z,34.17
2018-03-27T12:12:31.845Z,38.43
2018-03-27T12:15:00.346Z,31.37
2018-03-27T12:17:28.145Z,34.40
2018-03-27T12:19:56.575Z,37.65
2018-03-27T12:22:24.176Z,37.43
2018-03-27T12:24:51.764Z,29.50
2018-03-27T12:27:19.312Z,34.00
2018-03-27T12:29:48.124Z,32.13
2018-03-27T12:32:16.583Z,32.37
2018-03-27T12:34:44.228Z,36.77
2018-03-27T12:37:11.853Z,32.67
2018-03-27T12:39:39.655Z,29.97
2018-03-27T12:42:07.220Z,24.15
2018-03-27T12:44:35.051Z,34.20
2018-03-27T12:47:05.868Z,34.20
2018-03-27T12:49:34.008Z,36.20
2018-03-27T12:52:01.820Z,36.77
2018-03-27T12:54:31.378Z,34.23
2018-03-27T12:56:58.949Z,42.83
2018-03-27T12:59:27.951Z,40.58
2018-03-27T13:01:55.512Z,34.20
2018-03-27T13:04:23.030Z,37.23
2018-03-27T13:06:53.402Z,35.00
2018-03-27T13:09:22.039Z,36.67
2018-03-27T13:11:53.125Z,36.50
2018-03-27T13:14:20.867Z,42.37
2018-03-27T13:16:49.453Z,44.00
2018-03-27T13:19:17.002Z,36.57
2018-03-27T13:21:46.985Z,39.00
2018-03-27T13:24:14.985Z,39.83
2018-03-27T13:26:45.146Z,37.63
2018-03-27T13:29:12.707Z,35.50
2018-03-27T13:31:45.689Z,32.07
2018-03-27T13:34:18.489Z,30.55
2018-03-27T13:36:47.044Z,29.33
2018-03-27T13:41:55.021Z,33.33
2018-03-27T13:44:23.071Z,30.00
2018-03-27T13:46:52.771Z,35.63
2018-03-27T13:49:21.033Z,36.07
2018-03-27T13:51:50.995Z,35.27
2018-03-27T13:54:19.178Z,51.83
2018-03-27T13:56:46.784Z,39.23
2018-03-27T13:59:14.309Z,38.13
2018-03-27T14:01:42.066Z,36.73
2018-03-27T14:04:09.595Z,40.10
2018-03-27T14:06:40.521Z,43.40
2018-03-27T14:09:11.911Z,40.73
2018-03-27T14:11:42.635Z,38.00
2018-03-27T14:14:14.065Z,37.47
2018-03-27T14:16:44.084Z,38.70
2018-03-27T14:19:13.653Z,39.45
2018-03-27T14:21:45.734Z,37.20
2018-03-27T14:24:15.163Z,39.97
2018-03-27T14:26:43.476Z,34.63
2018-03-27T14:29:13.107Z,37.05
2018-03-27T14:31:47.142Z,35.17
2018-03-27T14:34:17.325Z,37.00
2018-03-27T14:36:48.396Z,34.70
2018-03-27T14:39:17.669Z,36.03
2018-03-27T14:41:48.435Z,36.70
2018-03-27T14:44:16.353Z,36.10
2018-03-27T14:46:44.964Z,35.22
2018-03-27T14:49:14.038Z,38.27
2018-03-27T14:51:42.975Z,36.70
2018-03-27T14:54:12.693Z,38.87
2018-03-27T14:56:43.675Z,36.80
2018-03-27T14:59:12.327Z,37.13
2018-03-27T15:01:41.206Z,34.50
2018-03-27T15:04:10.653Z,30.85
2018-03-27T15:06:41.365Z,31.23
2018-03-27T15:09:09.754Z,29.93
2018-03-27T15:11:39.782Z,32.03
2018-03-27T15:14:10.862Z,38.97
2018-03-27T15:16:38.600Z,34.77
2018-03-27T15:19:06.165Z,34.87
2018-03-27T15:21:35.284Z,34.47
2018-03-27T15:24:03.468Z,35.70
2018-03-27T15:26:32.266Z,32.50
2018-03-27T15:29:00.944Z,35.37
2018-03-27T15:31:30.202Z,31.23
2018-03-27T15:34:01.147Z,32.57
2018-03-27T15:36:30.059Z,31.62
2018-03-27T15:39:02.709Z,37.53
2018-03-27T15:41:32.592Z,34.73
2018-03-27T15:44:02.811Z,33.00
2018-03-27T15:46:32.660Z,34.20
2018-03-27T15:49:02.123Z,30.67
2018-03-27T15:51:33.382Z,35.60
2018-03-27T15:54:05.164Z,34.20
2018-03-27T15:56:35.543Z,32.63
2018-03-27T15:59:05.548Z,39.00
2018-03-27T16:01:38.995Z,32.73
2018-03-27T16:04:09.802Z,36.13
2018-03-27T16:06:42.604Z,35.13
2018-03-27T16:09:12.587Z,38.87
2018-03-27T16:11:40.860Z,40.77
2018-03-27T16:14:08.714Z,36.70
2018-03-27T16:16:43.298Z,36.30
2018-03-27T16:21:53.516Z,38.35
2018-03-27T16:24:21.489Z,36.00
2018-03-27T16:26:49.928Z,39.30
2018-03-27T16:29:19.632Z,38.87
2018-03-27T16:31:48.925Z,38.60
2018-03-27T16:34:21.826Z,38.37
2018-03-27T16:36:52.386Z,40.60
2018-03-27T16:39:27.529Z,37.80
2018-03-27T16:41:56.966Z,40.90
2018-03-27T16:44:28.531Z,40.70
2018-03-27T16:46:57.917Z,40.93
2018-03-27T16:49:26.082Z,37.27
2018-03-27T16:51:58.337Z,39.23
2018-03-27T16:54:28.042Z,39.10
2018-03-27T16:56:55.654Z,37.73
2018-03-27T16:59:23.539Z,38.67
2018-03-27T17:01:51.111Z,42.53
2018-03-27T17:04:18.865Z,40.53
2018-03-27T17:06:46.438Z,35.65
2018-03-27T17:09:17.528Z,37.65
2018-03-27T17:11:45.411Z,37.23
2018-03-27T17:14:13.447Z,33.85
2018-03-27T17:16:41.508Z,38.07
2018-03-27T17:19:12.374Z,32.77
2018-03-27T17:21:40.126Z,37.60
2018-03-27T17:24:09.907Z,33.50
2018-03-27T17:26:37.838Z,32.60
2018-03-27T17:29:06.228Z,36.13
2018-03-27T17:31:33.763Z,34.10
2018-03-27T17:34:02.481Z,36.15
2018-03-27T17:36:31.342Z,37.73
2018-03-27T17:38:59.514Z,36.33
2018-03-27T17:41:27.071Z,33.10
2018-03-27T17:43:54.872Z,37.42
2018-03-27T17:46:22.848Z,41.37
2018-03-27T17:48:50.619Z,41.03
2018-03-27T17:51:18.415Z,35.47
2018-03-27T17:53:46.588Z,35.33
2018-03-27T17:56:14.614Z,36.97
2018-03-27T17:58:42.160Z,36.00
2018-03-27T18:01:09.683Z,40.23
2018-03-27T18:03:39.493Z,34.50
2018-03-27T18:06:08.109Z,32.13
2018-03-27T18:08:35.842Z,33.53
2018-03-27T18:11:06.221Z,34.80
2018-03-27T18:13:40.581Z,31.03
2018-03-27T18:16:10.619Z,30.20
2018-03-27T18:18:41.740Z,35.47
2018-03-27T18:21:10.070Z,36.30
2018-03-27T18:23:37.667Z,37.08
2018-03-27T18:26:05.726Z,30.70
2018-03-27T18:28:33.267Z,30.03
2018-03-27T18:31:00.870Z,30.30
2018-03-27T18:33:28.359Z,32.93
2018-03-27T18:35:55.921Z,31.50
2018-03-27T18:38:23.472Z,29.43
2018-03-27T18:40:51.032Z,34.33
2018-03-27T18:43:18.569Z,37.50
2018-03-27T18:45:46.187Z,31.10
2018-03-27T18:48:13.733Z,34.43
2018-03-27T18:50:41.302Z,35.50
2018-03-27T18:53:08.864Z,36.27
2018-03-27T18:55:36.577Z,37.08
2018-03-27T18:58:04.140Z,41.63
2018-03-27T19:00:32.140Z,42.38
2018-03-27T19:02:59.768Z,41.97
2018-03-27T19:05:27.333Z,45.90
2018-03-27T19:07:54.854Z,48.50
2018-03-27T19:10:22.461Z,44.87
2018-03-27T19:12:49.967Z,41.20
2018-03-27T19:15:17.519Z,47.70
2018-03-27T19:17:45.048Z,43.10
2018-03-27T19:20:12.632Z,44.50
2018-03-27T19:22:40.166Z,43.80
2018-03-27T19:25:07.714Z,44.03
2018-03-27T19:27:35.291Z,38.90
2018-03-27T19:30:02.877Z,36.93
2018-03-27T19:32:30.420Z,37.43
2018-03-27T19:34:57.980Z,37.10
2018-03-27T19:37:25.497Z,40.70
2018-03-27T19:39:53.064Z,36.92
2018-03-27T19:42:20.604Z,37.07
2018-03-27T19:44:48.157Z,33.37
2018-03-27T19:47:15.686Z,35.60
2018-03-27T19:49:43.237Z,32.57
2018-03-27T19:52:10.808Z,32.00
2018-03-27T19:54:38.344Z,31.73
2018-03-27T19:57:05.980Z,34.53
2018-03-27T19:59:33.504Z,32.03
2018-03-27T20:02:01.068Z,34.40
2018-03-27T20:04:28.622Z,34.37
2018-03-27T20:06:56.203Z,36.13
2018-03-27T20:09:23.727Z,33.07
2018-03-27T20:11:51.572Z,38.30
2018-03-27T20:14:19.110Z,37.53
2018-03-27T20:16:47.296Z,27.30
2018-03-27T20:19:14.843Z,32.70
2018-03-27T20:21:42.417Z,32.20
2018-03-27T20:24:09.930Z,28.70
2018-03-27T20:26:37.490Z,26.30
2018-03-27T20:29:05.024Z,26.93
2018-03-27T20:31:32.595Z,28.60
2018-03-27T20:34:00.128Z,36.95
2018-03-27T20:36:27.688Z,32.53
2018-03-27T20:38:55.211Z,30.23
2018-03-27T20:41:22.843Z,32.00
2018-03-27T20:43:50.637Z,27.90
2018-03-27T20:46:18.181Z,27.50
2018-03-27T20:48:45.718Z,32.30
2018-03-27T20:51:13.273Z,26.53
2018-03-27T20:53:40.797Z,25.10
2018-03-27T20:56:08.353Z,42.50
2018-03-27T20:58:37.951Z,40.37
2018-03-27T21:01:06.053Z,26.53
2018-03-27T21:03:33.620Z,29.63
2018-03-27T21:06:01.208Z,31.20
2018-03-27T21:08:28.724Z,31.42
2018-03-27T21:10:56.275Z,29.77
2018-03-27T21:13:23.811Z,30.77
2018-03-27T21:15:51.368Z,30.63
2018-03-27T21:18:18.892Z,30.42
2018-03-27T21:20:46.421Z,28.47
2018-03-27T21:23:13.979Z,32.57
2018-03-27T21:25:41.500Z,29.43
2018-03-27T21:28:09.067Z,29.17
2018-03-27T21:30:36.619Z,27.23
2018-03-27T21:33:04.186Z,24.33
2018-03-27T21:35:31.884Z,25.83
2018-03-27T21:37:59.483Z,27.10
2018-03-27T21:40:27.012Z,29.35
2018-03-27T21:42:54.586Z,24.20
2018-03-27T21:45:22.127Z,27.58
2018-03-27T21:47:50.047Z,24.80
2018-03-27T21:50:17.598Z,22.90
2018-03-27T21:52:45.152Z,26.90
2018-03-27T21:55:13.215Z,24.13
2018-03-27T21:57:40.848Z,23.07
2018-03-27T22:00:08.477Z,25.62
2018-03-27T22:02:36.104Z,27.23
2018-03-27T22:05:03.926Z,26.13
2018-03-27T22:07:32.216Z,22.60
2018-03-27T22:10:00.168Z,22.70
2018-03-27T22:12:28.034Z,32.27
2018-03-27T22:14:55.780Z,24.03
2018-03-27T22:17:23.345Z,23.33
2018-03-27T22:19:51.078Z,24.13
2018-03-27T22:22:18.807Z,25.17
2018-03-27T22:24:46.481Z,27.57
2018-03-27T22:27:14.080Z,34.97
2018-03-27T22:29:41.613Z,39.53
2018-03-27T22:32:09.175Z,35.00
2018-03-27T22:34:36.709Z,41.07
2018-03-27T22:37:04.285Z,25.50
2018-03-27T22:39:31.840Z,26.60
2018-03-27T22:41:59.371Z,28.90
2018-03-27T22:44:26.969Z,26.77
2018-03-27T22:46:54.512Z,26.47
2018-03-27T22:49:22.191Z,26.93
2018-03-27T22:51:49.811Z,26.77
2018-03-27T22:54:17.556Z,25.77
2018-03-27T22:56:45.084Z,25.45
2018-03-27T22:59:13.014Z,26.03
2018-03-27T23:01:41.010Z,22.77
2018-03-27T23:04:10.414Z,27.35
2018-03-27T23:06:37.971Z,25.67
2018-03-27T23:09:05.570Z,25.80
2018-03-27T23:11:35.817Z,23.83
2018-03-27T23:14:03.922Z,25.27
2018-03-27T23:16:32.194Z,24.07
2018-03-27T23:18:59.983Z,22.75
2018-03-27T23:21:27.557Z,22.90
2018-03-27T23:23:55.513Z,23.00
2018-03-27T23:26:23.112Z,23.57
2018-03-27T23:28:50.703Z,23.90
2018-03-27T23:31:18.933Z,23.50
2018-03-27T23:33:46.522Z,22.37
2018-03-27T23:36:14.476Z,18.53
2018-03-27T23:38:42.074Z,17.83
2018-03-27T23:41:09.593Z,18.97
2018-03-27T23:43:37.180Z,18.03
2018-03-27T23:46:06.238Z,18.63
2018-03-27T23:48:34.051Z,19.45
2018-03-27T23:51:01.615Z,18.23
2018-03-27T23:53:29.240Z,17.73
2018-03-27T23:55:56.764Z,16.00
2018-03-27T23:58:24.473Z,17.97
